createdAt,value
2019-01-27T00:00:28.763Z,987.81
2019-01-27T00:01:28.694Z,987.82
2019-01-27T00:02:28.631Z,987.77
2019-01-27T00:03:28.559Z,987.79
2019-01-27T00:04:28.484Z,987.73
2019-01-27T00:05:28.417Z,987.74
2019-01-27T00:06:28.329Z,987.67
2019-01-27T00:07:28.269Z,987.71
2019-01-27T00:08:28.196Z,987.69
2019-01-27T00:09:28.117Z,987.70
2019-01-27T00:10:28.057Z,987.67
2019-01-27T00:11:27.987Z,987.65
2019-01-27T00:12:27.899Z,987.63
2019-01-27T00:13:27.830Z,987.62
2019-01-27T00:14:27.808Z,987.60
2019-01-27T00:15:27.700Z,987.58
2019-01-27T00:16:27.622Z,987.57
2019-01-27T00:17:27.565Z,987.57
2019-01-27T00:18:27.469Z,987.56
2019-01-27T00:19:27.407Z,987.55
2019-01-27T00:20:27.332Z,987.52
2019-01-27T00:21:27.257Z,987.53
2019-01-27T00:22:27.196Z,987.53
2019-01-27T00:23:27.124Z,987.50
2019-01-27T00:24:27.056Z,987.44
2019-01-27T00:25:26.982Z,987.46
2019-01-27T00:26:26.899Z,987.47
2019-01-27T00:27:26.821Z,987.41
2019-01-27T00:28:26.762Z,987.39
2019-01-27T00:29:26.690Z,987.37
2019-01-27T00:30:26.612Z,987.39
2019-01-27T00:31:26.537Z,987.38
2019-01-27T00:32:26.467Z,987.40
2019-01-27T00:33:26.426Z,987.39
2019-01-27T00:34:26.335Z,987.36
2019-01-27T00:35:26.262Z,987.34
2019-01-27T00:36:26.179Z,987.37
2019-01-27T00:37:26.107Z,987.35
2019-01-27T00:38:26.054Z,987.36
2019-01-27T00:39:25.998Z,987.35
2019-01-27T00:40:25.906Z,987.35
2019-01-27T00:41:25.835Z,987.38
2019-01-27T00:42:25.748Z,987.36
2019-01-27T00:43:25.673Z,987.31
2019-01-27T00:44:25.626Z,987.32
2019-01-27T00:45:25.588Z,987.28
2019-01-27T00:46:25.463Z,987.28
2019-01-27T00:47:25.402Z,987.32
2019-01-27T00:48:25.315Z,987.26
2019-01-27T00:49:25.243Z,987.25
2019-01-27T00:50:25.187Z,987.25
2019-01-27T00:51:25.118Z,987.27
2019-01-27T00:52:25.046Z,987.26
2019-01-27T00:53:24.974Z,987.25
2019-01-27T00:54:24.888Z,987.23
2019-01-27T00:55:24.859Z,987.21
2019-01-27T00:56:24.745Z,987.24
2019-01-27T00:57:24.674Z,987.21
2019-01-27T00:58:24.613Z,987.22
2019-01-27T00:59:24.542Z,987.24
2019-01-27T01:00:24.461Z,987.28
2019-01-27T01:01:24.388Z,987.31
2019-01-27T01:02:24.339Z,987.31
2019-01-27T01:03:24.258Z,987.28
2019-01-27T01:04:24.192Z,987.28
2019-01-27T01:05:24.124Z,987.22
2019-01-27T01:06:24.029Z,987.19
2019-01-27T01:07:23.951Z,987.23
2019-01-27T01:08:23.904Z,987.19
2019-01-27T01:09:23.820Z,987.19
2019-01-27T01:10:23.737Z,987.17
2019-01-27T01:11:23.667Z,987.12
2019-01-27T01:12:23.595Z,987.14
2019-01-27T01:13:23.524Z,987.14
2019-01-27T01:14:23.459Z,987.17
2019-01-27T01:15:23.390Z,987.14
2019-01-27T01:16:23.305Z,987.18
2019-01-27T01:17:23.233Z,987.17
2019-01-27T01:18:23.171Z,987.13
2019-01-27T01:19:23.103Z,987.10
2019-01-27T01:20:23.032Z,987.13
2019-01-27T01:21:22.973Z,987.08
2019-01-27T01:22:22.868Z,987.12
2019-01-27T01:23:22.803Z,987.08
2019-01-27T01:24:22.724Z,987.09
2019-01-27T01:25:22.652Z,987.05
2019-01-27T01:26:22.592Z,987.08
2019-01-27T01:27:22.517Z,987.07
2019-01-27T01:28:22.453Z,987.01
2019-01-27T01:29:22.373Z,987.03
2019-01-27T01:30:22.304Z,987.08
2019-01-27T01:31:22.216Z,987.01
2019-01-27T01:32:22.155Z,987.06
2019-01-27T01:33:22.077Z,987.05
2019-01-27T01:34:21.996Z,987.09
2019-01-27T01:35:21.926Z,987.07
2019-01-27T01:36:21.853Z,987.05
2019-01-27T01:37:21.779Z,987.03
2019-01-27T01:38:21.716Z,987.04
2019-01-27T01:39:21.644Z,987.02
2019-01-27T01:40:21.562Z,987.02
2019-01-27T01:41:21.491Z,986.99
2019-01-27T01:42:21.435Z,986.91
2019-01-27T01:43:21.348Z,986.91
2019-01-27T01:44:21.281Z,986.89
2019-01-27T01:45:21.205Z,986.89
2019-01-27T01:46:21.127Z,986.84
2019-01-27T01:47:21.049Z,986.86
2019-01-27T01:48:20.989Z,986.82
2019-01-27T01:49:20.914Z,986.79
2019-01-27T01:50:20.834Z,986.80
2019-01-27T01:51:20.755Z,986.76
2019-01-27T01:52:20.706Z,986.71
2019-01-27T01:53:20.609Z,986.74
2019-01-27T01:54:20.549Z,986.73
2019-01-27T01:55:20.473Z,986.74
2019-01-27T01:56:20.403Z,986.73
2019-01-27T01:57:20.332Z,986.72
2019-01-27T01:58:20.245Z,986.69
2019-01-27T01:59:20.169Z,986.66
2019-01-27T02:00:20.122Z,986.64
2019-01-27T02:01:20.026Z,986.65
2019-01-27T02:02:19.962Z,986.72
2019-01-27T02:03:19.889Z,986.73
2019-01-27T02:04:19.811Z,986.73
2019-01-27T02:05:19.728Z,986.70
2019-01-27T02:06:19.674Z,986.73
2019-01-27T02:07:19.600Z,986.79
2019-01-27T02:08:19.536Z,986.76
2019-01-27T02:09:19.451Z,986.72
2019-01-27T02:10:19.372Z,986.69
2019-01-27T02:11:19.293Z,986.67
2019-01-27T02:12:19.223Z,986.68
2019-01-27T02:13:19.172Z,986.73
2019-01-27T02:14:19.085Z,986.70
2019-01-27T02:15:19.015Z,986.75
2019-01-27T02:16:18.941Z,986.72
2019-01-27T02:17:18.902Z,986.74
2019-01-27T02:18:18.781Z,986.74
2019-01-27T02:19:18.710Z,986.73
2019-01-27T02:20:18.651Z,986.72
2019-01-27T02:21:18.576Z,986.72
2019-01-27T02:22:18.489Z,986.71
2019-01-27T02:23:18.413Z,986.71
2019-01-27T02:24:18.342Z,986.64
2019-01-27T02:25:18.272Z,986.64
2019-01-27T02:26:18.209Z,986.68
2019-01-27T02:27:18.134Z,986.69
2019-01-27T02:28:18.064Z,986.69
2019-01-27T02:29:18.038Z,986.69
2019-01-27T02:30:17.916Z,986.67
2019-01-27T02:31:17.833Z,986.70
2019-01-27T02:32:17.754Z,986.67
2019-01-27T02:33:17.683Z,986.69
2019-01-27T02:34:17.628Z,986.75
2019-01-27T02:35:17.592Z,986.73
2019-01-27T02:36:17.466Z,986.73
2019-01-27T02:37:17.393Z,986.70
2019-01-27T02:38:17.332Z,986.70
2019-01-27T02:39:17.261Z,986.72
2019-01-27T02:40:17.185Z,986.69
2019-01-27T02:41:17.124Z,986.68
2019-01-27T02:42:17.027Z,986.70
2019-01-27T02:43:16.949Z,986.66
2019-01-27T02:44:16.894Z,986.68
2019-01-27T02:45:16.837Z,986.61
2019-01-27T02:46:16.737Z,986.62
2019-01-27T02:47:16.672Z,986.72
2019-01-27T02:48:16.589Z,986.72
2019-01-27T02:49:16.527Z,986.69
2019-01-27T02:50:16.455Z,986.63
2019-01-27T02:51:16.371Z,986.59
2019-01-27T02:52:16.297Z,986.60
2019-01-27T02:53:16.241Z,986.56
2019-01-27T02:54:16.165Z,986.55
2019-01-27T02:55:16.091Z,986.51
2019-01-27T02:56:16.019Z,986.46
2019-01-27T02:57:15.938Z,986.46
2019-01-27T02:58:15.859Z,986.47
2019-01-27T02:59:15.781Z,986.45
2019-01-27T03:00:15.739Z,986.45
2019-01-27T03:01:15.646Z,986.42
2019-01-27T03:02:15.590Z,986.40
2019-01-27T03:03:15.500Z,986.44
2019-01-27T03:04:15.439Z,986.39
2019-01-27T03:05:15.345Z,986.37
2019-01-27T03:06:15.274Z,986.36
2019-01-27T03:07:15.213Z,986.33
2019-01-27T03:08:15.141Z,986.29
2019-01-27T03:09:15.052Z,986.31
2019-01-27T03:10:14.981Z,986.27
2019-01-27T03:11:14.907Z,986.26
2019-01-27T03:12:14.837Z,986.29
2019-01-27T03:13:14.772Z,986.26
2019-01-27T03:14:14.702Z,986.24
2019-01-27T03:15:14.629Z,986.21
2019-01-27T03:16:14.555Z,986.21
2019-01-27T03:17:14.469Z,986.20
2019-01-27T03:18:14.395Z,986.20
2019-01-27T03:19:14.319Z,986.17
2019-01-27T03:20:14.258Z,986.16
2019-01-27T03:21:14.187Z,986.13
2019-01-27T03:22:14.115Z,986.10
2019-01-27T03:23:14.030Z,986.08
2019-01-27T03:24:13.957Z,986.06
2019-01-27T03:25:13.930Z,986.02
2019-01-27T03:26:13.826Z,986.03
2019-01-27T03:27:13.748Z,985.97
2019-01-27T03:28:13.672Z,985.94
2019-01-27T03:29:13.592Z,985.90
2019-01-27T03:30:13.526Z,985.91
2019-01-27T03:31:13.462Z,985.85
2019-01-27T03:32:13.375Z,985.85
2019-01-27T03:33:13.313Z,985.82
2019-01-27T03:34:13.263Z,985.75
2019-01-27T03:35:13.160Z,985.70
2019-01-27T03:36:13.108Z,985.68
2019-01-27T03:37:13.002Z,985.64
2019-01-27T03:38:12.932Z,985.58
2019-01-27T03:39:12.869Z,985.61
2019-01-27T03:40:12.801Z,985.58
2019-01-27T03:41:12.755Z,985.53
2019-01-27T03:42:12.642Z,985.56
2019-01-27T03:43:12.570Z,985.51
2019-01-27T03:44:12.499Z,985.52
2019-01-27T03:45:12.443Z,985.51
2019-01-27T03:46:12.355Z,985.46
2019-01-27T03:47:12.277Z,985.50
2019-01-27T03:48:12.213Z,985.52
2019-01-27T03:49:12.145Z,985.54
2019-01-27T03:50:12.068Z,985.54
2019-01-27T03:51:11.994Z,985.51
2019-01-27T03:52:11.942Z,985.49
2019-01-27T03:53:11.836Z,985.46
2019-01-27T03:54:11.763Z,985.45
2019-01-27T03:55:11.701Z,985.44
2019-01-27T03:56:11.655Z,985.41
2019-01-27T03:57:11.540Z,985.40
2019-01-27T03:58:11.465Z,985.35
2019-01-27T03:59:11.396Z,985.35
2019-01-27T04:00:11.347Z,985.32
2019-01-27T04:01:11.257Z,985.30
2019-01-27T04:02:11.186Z,985.31
2019-01-27T04:03:11.116Z,985.29
2019-01-27T04:04:11.040Z,985.26
2019-01-27T04:05:10.958Z,985.23
2019-01-27T04:06:10.883Z,985.25
2019-01-27T04:07:10.811Z,985.26
2019-01-27T04:08:10.736Z,985.31
2019-01-27T04:09:10.729Z,985.32
2019-01-27T04:10:10.597Z,985.32
2019-01-27T04:11:10.514Z,985.34
2019-01-27T04:12:10.441Z,985.27
2019-01-27T04:13:10.382Z,985.27
2019-01-27T04:14:10.309Z,985.22
2019-01-27T04:15:10.231Z,985.25
2019-01-27T04:16:10.163Z,985.24
2019-01-27T04:17:10.074Z,985.26
2019-01-27T04:18:09.999Z,985.26
2019-01-27T04:19:09.929Z,985.29
2019-01-27T04:20:09.858Z,985.28
2019-01-27T04:21:09.840Z,985.30
2019-01-27T04:22:09.743Z,985.25
2019-01-27T04:23:09.644Z,985.23
2019-01-27T04:24:09.569Z,985.20
2019-01-27T04:25:09.483Z,985.21
2019-01-27T04:26:09.411Z,985.14
2019-01-27T04:27:09.346Z,985.13
2019-01-27T04:28:09.277Z,985.07
2019-01-27T04:29:09.191Z,985.02
2019-01-27T04:30:09.122Z,984.99
2019-01-27T04:31:09.042Z,984.98
2019-01-27T04:32:08.971Z,985.00
2019-01-27T04:33:08.908Z,985.02
2019-01-27T04:34:08.838Z,985.00
2019-01-27T04:35:08.762Z,985.02
2019-01-27T04:36:08.689Z,985.10
2019-01-27T04:37:08.602Z,985.12
2019-01-27T04:38:08.523Z,985.10
2019-01-27T04:39:08.454Z,985.03
2019-01-27T04:40:08.382Z,985.09
2019-01-27T04:41:08.324Z,985.13
2019-01-27T04:42:08.248Z,985.19
2019-01-27T04:43:08.178Z,985.18
2019-01-27T04:44:08.083Z,985.13
2019-01-27T04:45:08.020Z,985.15
2019-01-27T04:46:07.950Z,985.13
2019-01-27T04:47:07.875Z,985.14
2019-01-27T04:48:07.831Z,985.16
2019-01-27T04:49:07.717Z,985.16
2019-01-27T04:50:07.645Z,985.19
2019-01-27T04:51:07.584Z,985.19
2019-01-27T04:52:07.507Z,985.16
2019-01-27T04:53:07.424Z,985.18
2019-01-27T04:54:07.349Z,985.16
2019-01-27T04:55:07.280Z,985.16
2019-01-27T04:56:07.205Z,985.15
2019-01-27T04:57:07.141Z,985.12
2019-01-27T04:58:07.065Z,985.10
2019-01-27T04:59:06.982Z,985.10
2019-01-27T05:00:06.909Z,985.08
2019-01-27T05:01:06.845Z,985.12
2019-01-27T05:02:06.771Z,985.10
2019-01-27T05:03:06.705Z,985.07
2019-01-27T05:04:06.628Z,985.06
2019-01-27T05:05:06.541Z,985.01
2019-01-27T05:06:06.479Z,984.97
2019-01-27T05:07:06.413Z,985.00
2019-01-27T05:08:06.321Z,984.97
2019-01-27T05:09:06.262Z,984.97
2019-01-27T05:10:06.181Z,985.02
2019-01-27T05:11:06.116Z,985.01
2019-01-27T05:12:06.041Z,985.02
2019-01-27T05:13:05.951Z,985.05
2019-01-27T05:14:05.881Z,985.05
2019-01-27T05:15:05.815Z,985.02
2019-01-27T05:16:05.750Z,985.05
2019-01-27T05:17:05.659Z,985.01
2019-01-27T05:18:05.581Z,984.99
2019-01-27T05:19:05.509Z,985.04
2019-01-27T05:20:05.435Z,985.06
2019-01-27T05:21:05.373Z,985.07
2019-01-27T05:22:05.304Z,985.06
2019-01-27T05:23:05.223Z,985.11
2019-01-27T05:24:05.149Z,985.15
2019-01-27T05:25:05.080Z,985.13
2019-01-27T05:26:05.010Z,985.11
2019-01-27T05:27:04.934Z,985.11
2019-01-27T05:28:04.868Z,985.11
2019-01-27T05:29:04.777Z,985.12
2019-01-27T05:30:04.703Z,985.16
2019-01-27T05:31:04.642Z,985.11
2019-01-27T05:32:04.570Z,985.10
2019-01-27T05:33:04.477Z,985.10
2019-01-27T05:34:04.408Z,985.11
2019-01-27T05:35:04.336Z,985.16
2019-01-27T05:36:04.263Z,985.12
2019-01-27T05:37:04.202Z,985.13
2019-01-27T05:38:04.124Z,985.15
2019-01-27T05:39:04.062Z,985.16
2019-01-27T05:40:03.980Z,985.19
2019-01-27T05:41:03.895Z,985.19
2019-01-27T05:42:03.818Z,985.17
2019-01-27T05:43:03.753Z,985.16
2019-01-27T05:44:03.675Z,985.16
2019-01-27T05:45:03.607Z,985.16
2019-01-27T05:46:03.537Z,985.14
2019-01-27T05:47:03.452Z,985.19
2019-01-27T05:48:03.377Z,985.14
2019-01-27T05:49:03.316Z,985.17
2019-01-27T05:50:03.246Z,985.09
2019-01-27T05:51:03.172Z,985.17
2019-01-27T05:52:03.094Z,985.18
2019-01-27T05:53:03.008Z,985.18
2019-01-27T05:54:02.936Z,985.20
2019-01-27T05:55:02.876Z,985.21
2019-01-27T05:56:02.799Z,985.18
2019-01-27T05:57:02.712Z,985.16
2019-01-27T05:58:02.641Z,985.16
2019-01-27T05:59:02.573Z,985.18
2019-01-27T06:00:02.495Z,985.23
2019-01-27T06:01:02.432Z,985.21
2019-01-27T06:02:02.358Z,985.22
2019-01-27T06:03:02.273Z,985.17
2019-01-27T06:04:02.197Z,985.16
2019-01-27T06:05:02.135Z,985.17
2019-01-27T06:06:02.059Z,985.17
2019-01-27T06:07:01.986Z,985.20
2019-01-27T06:08:01.916Z,985.17
2019-01-27T06:09:01.833Z,985.17
2019-01-27T06:10:01.755Z,985.14
2019-01-27T06:11:01.684Z,985.17
2019-01-27T06:12:01.608Z,985.16
2019-01-27T06:13:01.546Z,985.14
2019-01-27T06:14:01.470Z,985.11
2019-01-27T06:15:01.413Z,985.13
2019-01-27T06:16:01.335Z,985.20
2019-01-27T06:17:01.239Z,985.24
2019-01-27T06:18:01.168Z,985.15
2019-01-27T06:19:01.098Z,985.21
2019-01-27T06:20:01.029Z,985.21
2019-01-27T06:21:00.944Z,985.21
2019-01-27T06:22:00.866Z,985.21
2019-01-27T06:23:00.800Z,985.26
2019-01-27T06:24:00.728Z,985.26
2019-01-27T06:25:00.658Z,985.28
2019-01-27T06:26:00.585Z,985.25
2019-01-27T06:27:00.522Z,985.26
2019-01-27T06:28:00.446Z,985.27
2019-01-27T06:29:00.353Z,985.29
2019-01-27T06:30:00.277Z,985.34
2019-01-27T06:31:00.202Z,985.34
2019-01-27T06:32:00.127Z,985.28
2019-01-27T06:33:00.069Z,985.29
2019-01-27T06:33:59.995Z,985.24
2019-01-27T06:34:59.907Z,985.27
2019-01-27T06:35:59.832Z,985.26
2019-01-27T06:36:59.773Z,985.30
2019-01-27T06:37:59.698Z,985.25
2019-01-27T06:38:59.628Z,985.27
2019-01-27T06:39:59.547Z,985.23
2019-01-27T06:40:59.463Z,985.19
2019-01-27T06:41:59.390Z,985.17
2019-01-27T06:42:59.313Z,985.16
2019-01-27T06:43:59.252Z,985.12
2019-01-27T06:44:59.178Z,985.09
2019-01-27T06:45:59.109Z,985.05
2019-01-27T06:46:59.033Z,985.09
2019-01-27T06:47:58.964Z,985.06
2019-01-27T06:48:58.873Z,985.05
2019-01-27T06:49:58.802Z,985.07
2019-01-27T06:50:58.734Z,985.07
2019-01-27T06:51:58.668Z,985.03
2019-01-27T06:52:58.575Z,985.08
2019-01-27T06:53:58.505Z,985.08
2019-01-27T06:54:58.425Z,985.19
2019-01-27T06:55:58.355Z,985.15
2019-01-27T06:56:58.320Z,985.17
2019-01-27T06:57:58.219Z,985.13
2019-01-27T06:58:58.131Z,985.18
2019-01-27T06:59:58.061Z,985.23
2019-01-27T07:00:57.999Z,985.26
2019-01-27T07:01:57.926Z,985.27
2019-01-27T07:02:57.852Z,985.27
2019-01-27T07:03:57.785Z,985.24
2019-01-27T07:04:57.699Z,985.28
2019-01-27T07:05:57.619Z,985.27
2019-01-27T07:06:57.560Z,985.32
2019-01-27T07:07:57.485Z,985.35
2019-01-27T07:08:57.417Z,985.36
2019-01-27T07:09:57.327Z,985.36
2019-01-27T07:10:57.257Z,985.41
2019-01-27T07:11:57.179Z,985.42
2019-01-27T07:12:57.113Z,985.43
2019-01-27T07:13:57.047Z,985.42
2019-01-27T07:14:56.967Z,985.45
2019-01-27T07:15:56.897Z,985.45
2019-01-27T07:16:56.807Z,985.46
2019-01-27T07:17:56.733Z,985.40
2019-01-27T07:18:56.666Z,985.48
2019-01-27T07:19:56.589Z,985.50
2019-01-27T07:20:56.527Z,985.46
2019-01-27T07:21:56.453Z,985.49
2019-01-27T07:22:56.370Z,985.53
2019-01-27T07:23:56.291Z,985.59
2019-01-27T07:24:56.233Z,985.62
2019-01-27T07:25:56.160Z,985.63
2019-01-27T07:26:56.082Z,985.61
2019-01-27T07:27:56.019Z,985.64
2019-01-27T07:28:55.930Z,985.62
2019-01-27T07:29:55.857Z,985.65
2019-01-27T07:30:55.790Z,985.61
2019-01-27T07:31:55.706Z,985.65
2019-01-27T07:32:55.642Z,985.66
2019-01-27T07:33:55.577Z,985.69
2019-01-27T07:34:55.499Z,985.70
2019-01-27T07:35:55.429Z,985.68
2019-01-27T07:36:55.342Z,985.71
2019-01-27T07:37:55.270Z,985.79
2019-01-27T07:38:55.204Z,985.81
2019-01-27T07:39:55.171Z,985.74
2019-01-27T07:40:55.043Z,985.81
2019-01-27T07:41:54.967Z,985.82
2019-01-27T07:42:54.895Z,985.84
2019-01-27T07:43:54.823Z,985.82
2019-01-27T07:44:54.764Z,985.79
2019-01-27T07:45:54.687Z,985.83
2019-01-27T07:46:54.622Z,985.74
2019-01-27T07:47:54.585Z,985.84
2019-01-27T07:48:54.451Z,985.82
2019-01-27T07:49:54.381Z,985.77
2019-01-27T07:50:54.303Z,985.77
2019-01-27T07:51:54.234Z,985.76
2019-01-27T07:52:54.180Z,985.78
2019-01-27T07:53:54.094Z,985.78
2019-01-27T07:54:54.013Z,985.84
2019-01-27T07:55:53.941Z,985.84
2019-01-27T07:56:53.881Z,985.87
2019-01-27T07:57:53.799Z,985.90
2019-01-27T07:58:53.756Z,985.87
2019-01-27T07:59:53.654Z,985.93
2019-01-27T08:00:53.571Z,985.98
2019-01-27T08:01:53.522Z,986.01
2019-01-27T08:02:53.481Z,986.01
2019-01-27T08:03:53.363Z,985.99
2019-01-27T08:04:53.273Z,986.02
2019-01-27T08:05:53.202Z,986.07
2019-01-27T08:06:53.128Z,986.07
2019-01-27T08:07:53.057Z,986.04
2019-01-27T08:08:52.997Z,986.08
2019-01-27T08:09:52.921Z,986.02
2019-01-27T08:10:52.838Z,986.04
2019-01-27T08:11:52.761Z,986.06
2019-01-27T08:12:52.700Z,986.07
2019-01-27T08:13:52.624Z,986.07
2019-01-27T08:14:52.553Z,986.11
2019-01-27T08:15:52.480Z,986.09
2019-01-27T08:16:52.393Z,986.12
2019-01-27T08:17:52.320Z,986.09
2019-01-27T08:18:52.246Z,986.18
2019-01-27T08:19:52.171Z,986.20
2019-01-27T08:20:52.112Z,986.22
2019-01-27T08:21:52.041Z,986.26
2019-01-27T08:22:51.962Z,986.29
2019-01-27T08:23:51.902Z,986.30
2019-01-27T08:24:51.874Z,986.31
2019-01-27T08:25:51.732Z,986.31
2019-01-27T08:26:51.689Z,986.29
2019-01-27T08:27:51.599Z,986.35
2019-01-27T08:28:51.513Z,986.36
2019-01-27T08:29:51.439Z,986.28
2019-01-27T08:30:51.365Z,986.34
2019-01-27T08:31:51.292Z,986.38
2019-01-27T08:32:51.230Z,986.35
2019-01-27T08:33:51.153Z,986.34
2019-01-27T08:34:51.086Z,986.41
2019-01-27T08:35:51.016Z,986.41
2019-01-27T08:36:50.926Z,986.42
2019-01-27T08:37:50.853Z,986.45
2019-01-27T08:38:50.776Z,986.50
2019-01-27T08:39:50.706Z,986.51
2019-01-27T08:40:50.643Z,986.49
2019-01-27T08:41:50.570Z,986.52
2019-01-27T08:42:50.487Z,986.48
2019-01-27T08:43:50.413Z,986.48
2019-01-27T08:44:50.351Z,986.48
2019-01-27T08:45:50.277Z,986.44
2019-01-27T08:46:50.211Z,986.43
2019-01-27T08:47:50.135Z,986.39
2019-01-27T08:48:50.049Z,986.34
2019-01-27T08:49:49.974Z,986.29
2019-01-27T08:50:49.905Z,986.24
2019-01-27T08:51:49.826Z,986.30
2019-01-27T08:52:49.769Z,986.28
2019-01-27T08:53:49.695Z,986.25
2019-01-27T08:54:49.630Z,986.26
2019-01-27T08:55:49.545Z,986.26
2019-01-27T08:56:49.462Z,986.29
2019-01-27T08:57:49.390Z,986.31
2019-01-27T08:58:49.325Z,986.33
2019-01-27T08:59:49.280Z,986.43
2019-01-27T09:00:49.168Z,986.44
2019-01-27T09:01:49.108Z,986.41
2019-01-27T09:02:49.026Z,986.39
2019-01-27T09:03:48.965Z,986.31
2019-01-27T09:04:48.901Z,986.28
2019-01-27T09:05:48.817Z,986.23
2019-01-27T09:06:48.763Z,986.39
2019-01-27T09:07:48.692Z,986.50
2019-01-27T09:08:48.599Z,986.51
2019-01-27T09:09:48.529Z,986.50
2019-01-27T09:10:48.458Z,986.48
2019-01-27T09:11:48.395Z,986.53
2019-01-27T09:12:48.303Z,986.50
2019-01-27T09:13:48.237Z,986.46
2019-01-27T09:14:48.177Z,986.47
2019-01-27T09:15:48.122Z,986.48
2019-01-27T09:16:48.012Z,986.52
2019-01-27T09:17:47.946Z,986.41
2019-01-27T09:18:47.874Z,986.42
2019-01-27T09:19:47.808Z,986.39
2019-01-27T09:20:47.744Z,986.42
2019-01-27T09:21:47.668Z,986.36
2019-01-27T09:22:47.604Z,986.34
2019-01-27T09:23:47.530Z,986.38
2019-01-27T09:24:47.450Z,986.34
2019-01-27T09:25:47.378Z,986.32
2019-01-27T09:26:47.303Z,986.30
2019-01-27T09:27:47.236Z,986.30
2019-01-27T09:28:47.174Z,986.29
2019-01-27T09:29:47.103Z,986.29
2019-01-27T09:30:47.020Z,986.29
2019-01-27T09:31:46.950Z,986.30
2019-01-27T09:32:46.886Z,986.31
2019-01-27T09:33:46.818Z,986.31
2019-01-27T09:34:46.747Z,986.35
2019-01-27T09:35:46.678Z,986.37
2019-01-27T09:36:46.600Z,986.37
2019-01-27T09:37:46.526Z,986.32
2019-01-27T09:38:46.478Z,986.30
2019-01-27T09:39:46.398Z,986.31
2019-01-27T09:40:46.320Z,986.35
2019-01-27T09:41:46.242Z,986.31
2019-01-27T09:42:46.170Z,986.31
2019-01-27T09:43:46.106Z,986.41
2019-01-27T09:44:46.042Z,986.50
2019-01-27T09:45:57.584Z,986.51
2019-01-27T09:46:45.903Z,986.48
2019-01-27T09:47:45.822Z,986.53
2019-01-27T09:48:45.765Z,986.47
2019-01-27T09:49:45.692Z,986.56
2019-01-27T09:50:45.623Z,986.57
2019-01-27T09:51:45.577Z,986.63
2019-01-27T09:52:45.474Z,986.60
2019-01-27T09:53:45.406Z,986.59
2019-01-27T09:54:45.346Z,986.54
2019-01-27T09:55:45.272Z,986.55
2019-01-27T09:56:45.207Z,986.54
2019-01-27T09:57:45.135Z,986.58
2019-01-27T09:58:45.105Z,986.61
2019-01-27T09:59:44.997Z,986.61
2019-01-27T10:00:44.912Z,986.67
2019-01-27T10:01:44.846Z,986.63
2019-01-27T10:02:44.789Z,986.60
2019-01-27T10:03:44.723Z,986.61
2019-01-27T10:04:44.643Z,986.66
2019-01-27T10:05:44.563Z,986.64
2019-01-27T10:06:44.496Z,986.63
2019-01-27T10:07:44.426Z,986.63
2019-01-27T10:08:44.395Z,986.66
2019-01-27T10:09:44.296Z,986.60
2019-01-27T10:10:44.213Z,986.60
2019-01-27T10:11:44.151Z,986.62
2019-01-27T10:12:44.095Z,986.64
2019-01-27T10:13:44.021Z,986.62
2019-01-27T10:14:43.949Z,986.55
2019-01-27T10:15:43.887Z,986.61
2019-01-27T10:16:43.804Z,986.65
2019-01-27T10:17:43.726Z,986.65
2019-01-27T10:18:43.669Z,986.64
2019-01-27T10:19:43.604Z,986.62
2019-01-27T10:20:43.524Z,986.67
2019-01-27T10:21:43.448Z,986.72
2019-01-27T10:22:43.379Z,986.70
2019-01-27T10:23:43.318Z,986.73
2019-01-27T10:24:43.256Z,986.68
2019-01-27T10:25:43.179Z,986.68
2019-01-27T10:26:43.117Z,986.66
2019-01-27T10:27:43.045Z,986.80
2019-01-27T10:28:42.960Z,986.69
2019-01-27T10:29:42.888Z,986.72
2019-01-27T10:30:42.830Z,986.77
2019-01-27T10:31:42.755Z,986.73
2019-01-27T10:32:42.693Z,986.77
2019-01-27T10:33:42.631Z,986.83
2019-01-27T10:34:42.543Z,986.72
2019-01-27T10:35:43.042Z,986.82
2019-01-27T10:36:42.415Z,986.81
2019-01-27T10:37:42.346Z,986.84
2019-01-27T10:38:42.274Z,986.86
2019-01-27T10:39:42.205Z,986.84
2019-01-27T10:40:42.124Z,986.91
2019-01-27T10:41:42.052Z,986.89
2019-01-27T10:42:42.182Z,986.89
2019-01-27T10:43:41.915Z,986.82
2019-01-27T10:44:41.857Z,986.95
2019-01-27T10:45:41.791Z,986.84
2019-01-27T10:46:41.716Z,986.82
2019-01-27T10:47:41.648Z,986.86
2019-01-27T10:48:41.568Z,986.91
2019-01-27T10:49:41.524Z,986.81
2019-01-27T10:50:41.439Z,986.84
2019-01-27T10:51:41.369Z,986.73
2019-01-27T10:52:41.286Z,986.77
2019-01-27T10:53:41.216Z,986.76
2019-01-27T10:54:41.146Z,986.71
2019-01-27T10:55:41.075Z,986.68
2019-01-27T10:56:41.023Z,986.70
2019-01-27T10:57:42.426Z,986.75
2019-01-27T10:58:40.878Z,986.78
2019-01-27T10:59:40.810Z,986.72
2019-01-27T11:00:40.724Z,986.75
2019-01-27T11:01:40.660Z,986.69
2019-01-27T11:02:40.586Z,986.72
2019-01-27T11:03:40.516Z,986.76
2019-01-27T11:04:40.457Z,986.84
2019-01-27T11:05:41.997Z,986.95
2019-01-27T11:06:40.304Z,986.78
2019-01-27T11:07:40.244Z,986.82
2019-01-27T11:08:40.170Z,986.74
2019-01-27T11:09:40.125Z,986.82
2019-01-27T11:10:40.031Z,986.84
2019-01-27T11:11:39.961Z,986.74
2019-01-27T11:12:39.882Z,986.65
2019-01-27T11:13:39.808Z,986.97
2019-01-27T11:14:39.752Z,986.73
2019-01-27T11:15:39.680Z,986.68
2019-01-27T11:16:39.598Z,986.76
2019-01-27T11:17:39.525Z,986.65
2019-01-27T11:18:39.456Z,986.81
2019-01-27T11:19:39.382Z,986.93
2019-01-27T11:20:40.085Z,986.70
2019-01-27T11:21:39.278Z,986.83
2019-01-27T11:22:39.173Z,986.79
2019-01-27T11:23:39.100Z,986.82
2019-01-27T11:24:39.037Z,986.90
2019-01-27T11:25:38.996Z,986.89
2019-01-27T11:26:38.898Z,986.87
2019-01-27T11:27:38.827Z,986.76
2019-01-27T11:28:38.758Z,986.73
2019-01-27T11:29:38.668Z,986.70
2019-01-27T11:30:38.603Z,986.88
2019-01-27T11:31:39.956Z,986.81
2019-01-27T11:32:38.473Z,986.93
2019-01-27T11:33:38.401Z,986.87
2019-01-27T11:34:38.353Z,986.88
2019-01-27T11:35:38.258Z,986.84
2019-01-27T11:36:38.170Z,986.88
2019-01-27T11:37:38.114Z,986.81
2019-01-27T11:38:38.063Z,986.74
2019-01-27T11:39:37.972Z,987.04
2019-01-27T11:40:37.891Z,986.78
2019-01-27T11:41:37.818Z,986.79
2019-01-27T11:42:37.771Z,986.86
2019-01-27T11:43:37.674Z,986.96
2019-01-27T11:44:37.616Z,986.91
2019-01-27T11:45:37.543Z,986.80
2019-01-27T11:46:37.469Z,987.01
2019-01-27T11:47:37.406Z,986.99
2019-01-27T11:48:37.316Z,986.91
2019-01-27T11:49:37.258Z,986.81
2019-01-27T11:50:37.176Z,986.88
2019-01-27T11:51:37.105Z,986.81
2019-01-27T11:52:37.046Z,986.62
2019-01-27T11:53:36.981Z,986.82
2019-01-27T11:54:36.892Z,986.90
2019-01-27T11:55:36.825Z,986.76
2019-01-27T11:56:36.764Z,986.73
2019-01-27T11:57:36.719Z,986.73
2019-01-27T11:58:36.617Z,986.69
2019-01-27T11:59:36.548Z,986.86
2019-01-27T12:00:36.472Z,986.55
2019-01-27T12:01:36.392Z,986.77
2019-01-27T12:02:36.323Z,986.71
2019-01-27T12:03:36.250Z,986.63
2019-01-27T12:04:36.200Z,986.76
2019-01-27T12:05:36.119Z,986.75
2019-01-27T12:06:36.049Z,986.82
2019-01-27T12:07:35.973Z,986.83
2019-01-27T12:08:35.941Z,986.68
2019-01-27T12:09:35.824Z,986.71
2019-01-27T12:10:35.763Z,986.87
2019-01-27T12:11:35.704Z,986.85
2019-01-27T12:12:35.612Z,986.75
2019-01-27T12:13:35.538Z,986.83
2019-01-27T12:14:35.464Z,986.84
2019-01-27T12:15:35.401Z,986.63
2019-01-27T12:16:35.339Z,986.70
2019-01-27T12:17:35.265Z,986.76
2019-01-27T12:18:35.182Z,986.72
2019-01-27T12:19:35.146Z,986.81
2019-01-27T12:20:35.054Z,986.76
2019-01-27T12:21:34.979Z,986.77
2019-01-27T12:22:34.910Z,986.75
2019-01-27T12:23:34.846Z,986.75
2019-01-27T12:24:34.756Z,986.66
2019-01-27T12:25:34.773Z,986.71
2019-01-27T12:26:34.651Z,986.64
2019-01-27T12:27:34.552Z,986.65